sensor_id;sensor_type;location;lat;lon;timestamp;P1;durP1;ratioP1;P2;durP2;ratioP2
80213;SDS011;69531;37.974;23.708;2023-05-07T00:01:27;4.85;;;3.20;;
80213;SDS011;69531;37.974;23.708;2023-05-07T00:03:53;5.05;;;3.25;;
80213;SDS011;69531;37.974;23.708;2023-05-07T00:06:19;4.97;;;3.22;;
80213;SDS011;69531;37.974;23.708;2023-05-07T00:08:45;6.00;;;3.50;;
80213;SDS011;69531;37.974;23.708;2023-05-07T00:11:10;6.15;;;2.97;;
80213;SDS011;69531;37.974;23.708;2023-05-07T00:13:36;4.63;;;2.90;;
80213;SDS011;69531;37.974;23.708;2023-05-07T00:16:02;4.68;;;2.97;;
80213;SDS011;69531;37.974;23.708;2023-05-07T00:18:28;5.53;;;2.88;;
80213;SDS011;69531;37.974;23.708;2023-05-07T00:20:54;5.65;;;3.03;;
80213;SDS011;69531;37.974;23.708;2023-05-07T00:23:21;4.90;;;3.00;;
80213;SDS011;69531;37.974;23.708;2023-05-07T00:25:47;5.03;;;3.22;;
80213;SDS011;69531;37.974;23.708;2023-05-07T00:28:13;6.50;;;3.53;;
80213;SDS011;69531;37.974;23.708;2023-05-07T00:30:38;4.75;;;2.63;;
80213;SDS011;69531;37.974;23.708;2023-05-07T00:33:04;5.32;;;3.20;;
80213;SDS011;69531;37.974;23.708;2023-05-07T00:35:30;5.40;;;3.25;;
80213;SDS011;69531;37.974;23.708;2023-05-07T00:37:55;4.95;;;3.13;;
80213;SDS011;69531;37.974;23.708;2023-05-07T00:40:21;7.40;;;3.33;;
80213;SDS011;69531;37.974;23.708;2023-05-07T00:42:47;6.57;;;3.30;;
80213;SDS011;69531;37.974;23.708;2023-05-07T00:45:14;5.05;;;3.20;;
80213;SDS011;69531;37.974;23.708;2023-05-07T00:47:40;5.65;;;3.20;;
80213;SDS011;69531;37.974;23.708;2023-05-07T00:50:06;4.88;;;3.30;;
80213;SDS011;69531;37.974;23.708;2023-05-07T00:52:34;4.53;;;3.10;;
80213;SDS011;69531;37.974;23.708;2023-05-07T00:55:05;5.35;;;3.22;;
80213;SDS011;69531;37.974;23.708;2023-05-07T00:57:37;4.55;;;3.25;;
80213;SDS011;69531;37.974;23.708;2023-05-07T01:00:06;4.57;;;3.00;;
80213;SDS011;69531;37.974;23.708;2023-05-07T01:02:34;6.03;;;3.70;;
80213;SDS011;69531;37.974;23.708;2023-05-07T01:05:01;5.38;;;3.10;;
80213;SDS011;69531;37.974;23.708;2023-05-07T01:07:31;4.38;;;3.00;;
80213;SDS011;69531;37.974;23.708;2023-05-07T01:09:58;5.63;;;3.22;;
80213;SDS011;69531;37.974;23.708;2023-05-07T01:12:24;5.57;;;3.30;;
80213;SDS011;69531;37.974;23.708;2023-05-07T01:14:50;5.00;;;3.13;;
80213;SDS011;69531;37.974;23.708;2023-05-07T01:17:17;5.47;;;3.03;;
80213;SDS011;69531;37.974;23.708;2023-05-07T01:19:42;5.75;;;3.40;;
80213;SDS011;69531;37.974;23.708;2023-05-07T01:22:09;5.50;;;3.40;;
80213;SDS011;69531;37.974;23.708;2023-05-07T01:24:40;5.18;;;3.40;;
80213;SDS011;69531;37.974;23.708;2023-05-07T01:27:06;5.43;;;3.22;;
80213;SDS011;69531;37.974;23.708;2023-05-07T01:29:32;5.05;;;3.28;;
80213;SDS011;69531;37.974;23.708;2023-05-07T01:31:58;4.68;;;2.95;;
80213;SDS011;69531;37.974;23.708;2023-05-07T01:34:25;4.88;;;3.35;;
80213;SDS011;69531;37.974;23.708;2023-05-07T01:36:53;7.07;;;3.53;;
80213;SDS011;69531;37.974;23.708;2023-05-07T01:39:22;5.45;;;3.33;;
80213;SDS011;69531;37.974;23.708;2023-05-07T01:41:49;5.38;;;3.20;;
80213;SDS011;69531;37.974;23.708;2023-05-07T01:44:15;6.15;;;3.40;;
80213;SDS011;69531;37.974;23.708;2023-05-07T01:46:43;5.97;;;3.03;;
80213;SDS011;69531;37.974;23.708;2023-05-07T01:49:09;5.95;;;3.35;;
80213;SDS011;69531;37.974;23.708;2023-05-07T01:51:35;4.55;;;3.20;;
80213;SDS011;69531;37.974;23.708;2023-05-07T01:54:01;5.90;;;3.53;;
80213;SDS011;69531;37.974;23.708;2023-05-07T01:56:27;4.68;;;3.10;;
80213;SDS011;69531;37.974;23.708;2023-05-07T01:58:53;5.10;;;3.22;;
80213;SDS011;69531;37.974;23.708;2023-05-07T02:01:18;5.53;;;3.35;;
80213;SDS011;69531;37.974;23.708;2023-05-07T02:03:44;6.35;;;3.60;;
80213;SDS011;69531;37.974;23.708;2023-05-07T02:06:10;4.85;;;3.08;;
80213;SDS011;69531;37.974;23.708;2023-05-07T02:08:36;4.88;;;3.22;;
80213;SDS011;69531;37.974;23.708;2023-05-07T02:11:01;5.35;;;3.25;;
80213;SDS011;69531;37.974;23.708;2023-05-07T02:13:31;5.55;;;3.30;;
80213;SDS011;69531;37.974;23.708;2023-05-07T02:15:57;4.45;;;3.00;;
80213;SDS011;69531;37.974;23.708;2023-05-07T02:18:23;5.50;;;3.60;;
80213;SDS011;69531;37.974;23.708;2023-05-07T02:20:49;5.35;;;3.30;;
80213;SDS011;69531;37.974;23.708;2023-05-07T02:23:15;5.20;;;3.28;;
80213;SDS011;69531;37.974;23.708;2023-05-07T02:25:40;4.80;;;3.10;;
80213;SDS011;69531;37.974;23.708;2023-05-07T02:28:06;5.38;;;3.38;;
80213;SDS011;69531;37.974;23.708;2023-05-07T02:30:32;5.18;;;3.17;;
80213;SDS011;69531;37.974;23.708;2023-05-07T02:32:58;5.50;;;2.95;;
80213;SDS011;69531;37.974;23.708;2023-05-07T02:35:24;5.78;;;3.45;;
80213;SDS011;69531;37.974;23.708;2023-05-07T02:37:50;5.45;;;3.55;;
80213;SDS011;69531;37.974;23.708;2023-05-07T02:40:16;6.00;;;3.83;;
80213;SDS011;69531;37.974;23.708;2023-05-07T02:42:42;5.50;;;3.30;;
80213;SDS011;69531;37.974;23.708;2023-05-07T02:45:08;4.78;;;3.13;;
80213;SDS011;69531;37.974;23.708;2023-05-07T02:47:34;5.90;;;3.47;;
80213;SDS011;69531;37.974;23.708;2023-05-07T02:50:00;5.03;;;3.00;;
80213;SDS011;69531;37.974;23.708;2023-05-07T02:52:25;5.35;;;3.40;;
80213;SDS011;69531;37.974;23.708;2023-05-07T02:54:51;5.70;;;3.60;;
80213;SDS011;69531;37.974;23.708;2023-05-07T02:57:17;5.35;;;2.72;;
80213;SDS011;69531;37.974;23.708;2023-05-07T02:59:43;5.50;;;3.40;;
80213;SDS011;69531;37.974;23.708;2023-05-07T03:02:09;4.65;;;2.80;;
80213;SDS011;69531;37.974;23.708;2023-05-07T03:04:35;5.13;;;3.17;;
80213;SDS011;69531;37.974;23.708;2023-05-07T03:07:00;8.27;;;3.20;;
80213;SDS011;69531;37.974;23.708;2023-05-07T03:09:26;4.95;;;2.95;;
80213;SDS011;69531;37.974;23.708;2023-05-07T03:11:52;4.88;;;3.03;;
80213;SDS011;69531;37.974;23.708;2023-05-07T03:14:18;6.88;;;4.00;;
80213;SDS011;69531;37.974;23.708;2023-05-07T03:16:43;4.78;;;2.78;;
80213;SDS011;69531;37.974;23.708;2023-05-07T03:19:09;4.28;;;2.70;;
80213;SDS011;69531;37.974;23.708;2023-05-07T03:21:35;5.30;;;3.03;;
80213;SDS011;69531;37.974;23.708;2023-05-07T03:24:00;5.05;;;2.88;;
80213;SDS011;69531;37.974;23.708;2023-05-07T03:26:26;5.68;;;3.10;;
80213;SDS011;69531;37.974;23.708;2023-05-07T03:28:52;5.10;;;2.90;;
80213;SDS011;69531;37.974;23.708;2023-05-07T03:31:17;5.22;;;3.03;;
80213;SDS011;69531;37.974;23.708;2023-05-07T03:33:50;5.43;;;3.30;;
80213;SDS011;69531;37.974;23.708;2023-05-07T03:36:17;5.90;;;3.15;;
80213;SDS011;69531;37.974;23.708;2023-05-07T03:38:42;5.47;;;3.25;;
80213;SDS011;69531;37.974;23.708;2023-05-07T03:41:08;4.85;;;3.08;;
80213;SDS011;69531;37.974;23.708;2023-05-07T03:43:34;5.00;;;3.08;;
80213;SDS011;69531;37.974;23.708;2023-05-07T03:46:00;6.50;;;3.30;;
80213;SDS011;69531;37.974;23.708;2023-05-07T03:48:25;5.75;;;3.30;;
80213;SDS011;69531;37.974;23.708;2023-05-07T03:50:51;5.75;;;3.15;;
80213;SDS011;69531;37.974;23.708;2023-05-07T03:53:17;5.15;;;3.10;;
80213;SDS011;69531;37.974;23.708;2023-05-07T03:55:43;5.18;;;3.10;;
80213;SDS011;69531;37.974;23.708;2023-05-07T03:58:08;5.22;;;3.00;;
80213;SDS011;69531;37.974;23.708;2023-05-07T04:00:34;4.75;;;2.90;;
80213;SDS011;69531;37.974;23.708;2023-05-07T04:03:03;6.28;;;3.13;;
80213;SDS011;69531;37.974;23.708;2023-05-07T04:05:30;5.43;;;3.10;;
80213;SDS011;69531;37.974;23.708;2023-05-07T04:07:57;5.68;;;3.28;;
80213;SDS011;69531;37.974;23.708;2023-05-07T04:10:23;4.70;;;2.70;;
80213;SDS011;69531;37.974;23.708;2023-05-07T04:12:49;4.45;;;3.03;;
80213;SDS011;69531;37.974;23.708;2023-05-07T04:15:14;5.22;;;2.75;;
80213;SDS011;69531;37.974;23.708;2023-05-07T04:17:40;5.40;;;3.20;;
80213;SDS011;69531;37.974;23.708;2023-05-07T04:20:08;4.20;;;2.60;;
80213;SDS011;69531;37.974;23.708;2023-05-07T04:22:35;5.10;;;3.30;;
80213;SDS011;69531;37.974;23.708;2023-05-07T04:25:01;6.13;;;2.97;;
80213;SDS011;69531;37.974;23.708;2023-05-07T04:27:27;5.03;;;2.67;;
80213;SDS011;69531;37.974;23.708;2023-05-07T04:29:53;6.00;;;3.00;;
80213;SDS011;69531;37.974;23.708;2023-05-07T04:32:21;5.65;;;2.55;;
80213;SDS011;69531;37.974;23.708;2023-05-07T04:34:47;4.45;;;2.38;;
80213;SDS011;69531;37.974;23.708;2023-05-07T04:37:13;5.72;;;2.72;;
80213;SDS011;69531;37.974;23.708;2023-05-07T04:39:39;4.45;;;2.85;;
80213;SDS011;69531;37.974;23.708;2023-05-07T04:42:04;5.50;;;3.00;;
80213;SDS011;69531;37.974;23.708;2023-05-07T04:44:33;5.60;;;2.75;;
80213;SDS011;69531;37.974;23.708;2023-05-07T04:47:00;5.28;;;2.65;;
80213;SDS011;69531;37.974;23.708;2023-05-07T04:49:25;4.40;;;2.63;;
80213;SDS011;69531;37.974;23.708;2023-05-07T04:51:51;4.60;;;2.78;;
80213;SDS011;69531;37.974;23.708;2023-05-07T04:54:17;4.40;;;2.45;;
80213;SDS011;69531;37.974;23.708;2023-05-07T04:56:43;5.40;;;2.65;;
80213;SDS011;69531;37.974;23.708;2023-05-07T04:59:08;4.20;;;2.50;;
80213;SDS011;69531;37.974;23.708;2023-05-07T05:01:34;4.40;;;2.30;;
80213;SDS011;69531;37.974;23.708;2023-05-07T05:04:00;4.97;;;2.45;;
80213;SDS011;69531;37.974;23.708;2023-05-07T05:06:26;5.25;;;2.60;;
80213;SDS011;69531;37.974;23.708;2023-05-07T05:08:51;6.07;;;2.55;;
80213;SDS011;69531;37.974;23.708;2023-05-07T05:11:17;4.80;;;2.67;;
80213;SDS011;69531;37.974;23.708;2023-05-07T05:13:43;5.43;;;2.70;;
80213;SDS011;69531;37.974;23.708;2023-05-07T05:16:08;3.35;;;2.22;;
80213;SDS011;69531;37.974;23.708;2023-05-07T05:18:34;6.50;;;2.50;;
80213;SDS011;69531;37.974;23.708;2023-05-07T05:21:00;6.13;;;2.50;;
80213;SDS011;69531;37.974;23.708;2023-05-07T05:23:25;4.30;;;2.35;;
80213;SDS011;69531;37.974;23.708;2023-05-07T05:25:55;6.15;;;2.45;;
80213;SDS011;69531;37.974;23.708;2023-05-07T05:28:24;5.68;;;2.65;;
80213;SDS011;69531;37.974;23.708;2023-05-07T05:30:49;5.63;;;2.50;;
80213;SDS011;69531;37.974;23.708;2023-05-07T05:33:15;4.18;;;2.45;;
80213;SDS011;69531;37.974;23.708;2023-05-07T05:35:41;4.80;;;2.40;;
80213;SDS011;69531;37.974;23.708;2023-05-07T05:38:07;4.28;;;2.50;;
80213;SDS011;69531;37.974;23.708;2023-05-07T05:40:33;3.05;;;2.20;;
80213;SDS011;69531;37.974;23.708;2023-05-07T05:42:59;4.60;;;2.42;;
80213;SDS011;69531;37.974;23.708;2023-05-07T05:45:25;3.40;;;2.25;;
80213;SDS011;69531;37.974;23.708;2023-05-07T05:47:51;3.70;;;2.15;;
80213;SDS011;69531;37.974;23.708;2023-05-07T05:50:16;4.38;;;2.47;;
80213;SDS011;69531;37.974;23.708;2023-05-07T05:52:42;5.05;;;2.28;;
80213;SDS011;69531;37.974;23.708;2023-05-07T05:55:08;3.70;;;2.50;;
80213;SDS011;69531;37.974;23.708;2023-05-07T05:57:34;4.15;;;2.25;;
80213;SDS011;69531;37.974;23.708;2023-05-07T06:00:00;4.15;;;2.35;;
80213;SDS011;69531;37.974;23.708;2023-05-07T06:02:27;3.58;;;2.15;;
80213;SDS011;69531;37.974;23.708;2023-05-07T06:04:53;3.67;;;2.33;;
80213;SDS011;69531;37.974;23.708;2023-05-07T06:07:19;3.85;;;2.33;;
80213;SDS011;69531;37.974;23.708;2023-05-07T06:09:45;4.47;;;2.20;;
80213;SDS011;69531;37.974;23.708;2023-05-07T06:12:11;3.60;;;2.30;;
80213;SDS011;69531;37.974;23.708;2023-05-07T06:14:37;3.70;;;2.30;;
80213;SDS011;69531;37.974;23.708;2023-05-07T06:17:02;3.33;;;2.28;;
80213;SDS011;69531;37.974;23.708;2023-05-07T06:19:28;5.60;;;2.33;;
80213;SDS011;69531;37.974;23.708;2023-05-07T06:21:54;4.15;;;2.60;;
80213;SDS011;69531;37.974;23.708;2023-05-07T06:24:21;3.40;;;2.28;;
80213;SDS011;69531;37.974;23.708;2023-05-07T06:26:47;4.28;;;2.33;;
80213;SDS011;69531;37.974;23.708;2023-05-07T06:29:13;3.67;;;2.30;;
80213;SDS011;69531;37.974;23.708;2023-05-07T06:31:39;4.35;;;2.28;;
80213;SDS011;69531;37.974;23.708;2023-05-07T06:34:04;3.28;;;2.10;;
80213;SDS011;69531;37.974;23.708;2023-05-07T06:36:30;5.07;;;2.42;;
80213;SDS011;69531;37.974;23.708;2023-05-07T06:38:56;4.50;;;2.40;;
80213;SDS011;69531;37.974;23.708;2023-05-07T06:41:22;5.43;;;2.20;;
80213;SDS011;69531;37.974;23.708;2023-05-07T06:43:47;6.05;;;1.90;;
80213;SDS011;69531;37.974;23.708;2023-05-07T06:46:13;3.67;;;2.10;;
80213;SDS011;69531;37.974;23.708;2023-05-07T06:48:39;4.43;;;2.25;;
80213;SDS011;69531;37.974;23.708;2023-05-07T06:51:04;3.97;;;2.17;;
80213;SDS011;69531;37.974;23.708;2023-05-07T06:53:30;4.47;;;1.88;;
80213;SDS011;69531;37.974;23.708;2023-05-07T06:55:56;4.35;;;2.13;;
80213;SDS011;69531;37.974;23.708;2023-05-07T06:58:22;2.88;;;2.00;;
80213;SDS011;69531;37.974;23.708;2023-05-07T07:00:47;4.70;;;2.05;;
80213;SDS011;69531;37.974;23.708;2023-05-07T07:03:13;5.70;;;2.15;;
80213;SDS011;69531;37.974;23.708;2023-05-07T07:05:42;3.50;;;2.30;;
80213;SDS011;69531;37.974;23.708;2023-05-07T07:08:09;3.15;;;1.90;;
80213;SDS011;69531;37.974;23.708;2023-05-07T07:10:35;3.10;;;2.00;;
80213;SDS011;69531;37.974;23.708;2023-05-07T07:13:01;3.17;;;1.90;;
80213;SDS011;69531;37.974;23.708;2023-05-07T07:15:26;3.90;;;1.80;;
80213;SDS011;69531;37.974;23.708;2023-05-07T07:17:52;2.80;;;1.83;;
80213;SDS011;69531;37.974;23.708;2023-05-07T07:20:18;3.45;;;2.00;;
80213;SDS011;69531;37.974;23.708;2023-05-07T07:22:43;4.50;;;2.20;;
80213;SDS011;69531;37.974;23.708;2023-05-07T07:25:09;3.88;;;2.05;;
80213;SDS011;69531;37.974;23.708;2023-05-07T07:27:36;3.05;;;1.45;;
80213;SDS011;69531;37.974;23.708;2023-05-07T07:30:02;4.55;;;2.17;;
80213;SDS011;69531;37.974;23.708;2023-05-07T07:32:28;3.80;;;1.80;;
80213;SDS011;69531;37.974;23.708;2023-05-07T07:34:53;3.05;;;1.75;;
80213;SDS011;69531;37.974;23.708;2023-05-07T07:37:19;3.60;;;1.73;;
80213;SDS011;69531;37.974;23.708;2023-05-07T07:39:45;3.58;;;2.03;;
80213;SDS011;69531;37.974;23.708;2023-05-07T07:42:11;3.10;;;1.73;;
80213;SDS011;69531;37.974;23.708;2023-05-07T07:44:36;4.32;;;1.80;;
80213;SDS011;69531;37.974;23.708;2023-05-07T07:47:04;2.97;;;1.77;;
80213;SDS011;69531;37.974;23.708;2023-05-07T07:49:30;4.72;;;1.88;;
80213;SDS011;69531;37.974;23.708;2023-05-07T07:51:55;5.00;;;1.80;;
80213;SDS011;69531;37.974;23.708;2023-05-07T07:54:23;4.65;;;2.13;;
80213;SDS011;69531;37.974;23.708;2023-05-07T07:56:49;5.32;;;2.47;;
80213;SDS011;69531;37.974;23.708;2023-05-07T07:59:14;4.35;;;1.73;;
80213;SDS011;69531;37.974;23.708;2023-05-07T08:01:43;5.28;;;2.05;;
80213;SDS011;69531;37.974;23.708;2023-05-07T08:04:10;3.28;;;2.05;;
80213;SDS011;69531;37.974;23.708;2023-05-07T08:06:35;4.50;;;2.10;;
80213;SDS011;69531;37.974;23.708;2023-05-07T08:09:01;4.70;;;1.77;;
80213;SDS011;69531;37.974;23.708;2023-05-07T08:11:27;2.83;;;1.70;;
80213;SDS011;69531;37.974;23.708;2023-05-07T08:13:53;5.53;;;2.00;;
80213;SDS011;69531;37.974;23.708;2023-05-07T08:16:20;4.13;;;1.80;;
80213;SDS011;69531;37.974;23.708;2023-05-07T08:18:45;3.53;;;2.00;;
80213;SDS011;69531;37.974;23.708;2023-05-07T08:21:11;2.50;;;1.65;;
80213;SDS011;69531;37.974;23.708;2023-05-07T08:23:37;3.92;;;1.80;;
80213;SDS011;69531;37.974;23.708;2023-05-07T08:26:03;3.83;;;1.80;;
80213;SDS011;69531;37.974;23.708;2023-05-07T08:28:28;4.50;;;2.08;;
80213;SDS011;69531;37.974;23.708;2023-05-07T08:30:54;4.57;;;1.90;;
80213;SDS011;69531;37.974;23.708;2023-05-07T08:33:21;7.28;;;2.10;;
80213;SDS011;69531;37.974;23.708;2023-05-07T08:35:47;5.63;;;2.00;;
80213;SDS011;69531;37.974;23.708;2023-05-07T08:38:13;3.22;;;1.75;;
80213;SDS011;69531;37.974;23.708;2023-05-07T08:40:38;3.75;;;2.10;;
80213;SDS011;69531;37.974;23.708;2023-05-07T08:43:06;3.35;;;1.80;;
80213;SDS011;69531;37.974;23.708;2023-05-07T08:45:33;4.78;;;2.03;;
80213;SDS011;69531;37.974;23.708;2023-05-07T08:48:00;4.45;;;1.95;;
80213;SDS011;69531;37.974;23.708;2023-05-07T08:50:28;4.63;;;1.70;;
80213;SDS011;69531;37.974;23.708;2023-05-07T08:52:55;3.60;;;1.70;;
80213;SDS011;69531;37.974;23.708;2023-05-07T08:55:21;4.50;;;2.10;;
80213;SDS011;69531;37.974;23.708;2023-05-07T08:57:47;3.17;;;1.85;;
80213;SDS011;69531;37.974;23.708;2023-05-07T09:00:13;5.50;;;2.25;;
80213;SDS011;69531;37.974;23.708;2023-05-07T09:02:40;3.80;;;2.03;;
80213;SDS011;69531;37.974;23.708;2023-05-07T09:05:05;5.00;;;1.77;;
80213;SDS011;69531;37.974;23.708;2023-05-07T09:07:32;3.53;;;1.70;;
80213;SDS011;69531;37.974;23.708;2023-05-07T09:09:57;5.07;;;2.10;;
80213;SDS011;69531;37.974;23.708;2023-05-07T09:12:24;2.42;;;1.80;;
80213;SDS011;69531;37.974;23.708;2023-05-07T09:14:50;2.75;;;2.20;;
80213;SDS011;69531;37.974;23.708;2023-05-07T09:17:16;3.42;;;2.00;;
80213;SDS011;69531;37.974;23.708;2023-05-07T09:19:43;2.17;;;1.67;;
80213;SDS011;69531;37.974;23.708;2023-05-07T09:22:12;4.22;;;1.90;;
80213;SDS011;69531;37.974;23.708;2023-05-07T09:24:39;4.50;;;2.08;;
80213;SDS011;69531;37.974;23.708;2023-05-07T09:27:05;3.88;;;2.00;;
80213;SDS011;69531;37.974;23.708;2023-05-07T09:29:31;3.70;;;1.67;;
80213;SDS011;69531;37.974;23.708;2023-05-07T09:32:04;4.38;;;1.80;;
80213;SDS011;69531;37.974;23.708;2023-05-07T09:34:31;4.57;;;1.80;;
80213;SDS011;69531;37.974;23.708;2023-05-07T09:37:00;4.90;;;1.83;;
80213;SDS011;69531;37.974;23.708;2023-05-07T09:39:39;3.63;;;1.80;;
80213;SDS011;69531;37.974;23.708;2023-05-07T09:42:08;4.68;;;2.05;;
80213;SDS011;69531;37.974;23.708;2023-05-07T09:44:34;4.25;;;2.10;;
80213;SDS011;69531;37.974;23.708;2023-05-07T09:47:01;4.65;;;2.20;;
80213;SDS011;69531;37.974;23.708;2023-05-07T09:49:33;3.20;;;2.00;;
80213;SDS011;69531;37.974;23.708;2023-05-07T09:52:01;4.18;;;2.05;;
80213;SDS011;69531;37.974;23.708;2023-05-07T09:54:28;5.38;;;2.20;;
80213;SDS011;69531;37.974;23.708;2023-05-07T09:56:55;4.15;;;2.00;;
80213;SDS011;69531;37.974;23.708;2023-05-07T09:59:22;4.63;;;2.05;;
80213;SDS011;69531;37.974;23.708;2023-05-07T10:01:49;3.53;;;1.80;;
80213;SDS011;69531;37.974;23.708;2023-05-07T10:04:17;3.22;;;1.90;;
80213;SDS011;69531;37.974;23.708;2023-05-07T10:06:43;3.88;;;2.13;;
80213;SDS011;69531;37.974;23.708;2023-05-07T10:09:10;4.60;;;1.73;;
80213;SDS011;69531;37.974;23.708;2023-05-07T10:11:37;4.18;;;2.22;;
80213;SDS011;69531;37.974;23.708;2023-05-07T10:14:04;5.53;;;2.45;;
80213;SDS011;69531;37.974;23.708;2023-05-07T10:16:31;4.85;;;1.95;;
80213;SDS011;69531;37.974;23.708;2023-05-07T10:21:30;5.90;;;1.95;;
80213;SDS011;69531;37.974;23.708;2023-05-07T10:24:06;3.63;;;1.92;;
80213;SDS011;69531;37.974;23.708;2023-05-07T10:26:39;3.78;;;1.90;;
80213;SDS011;69531;37.974;23.708;2023-05-07T10:29:12;3.75;;;1.90;;
80213;SDS011;69531;37.974;23.708;2023-05-07T10:31:59;3.38;;;2.03;;
80213;SDS011;69531;37.974;23.708;2023-05-07T10:34:45;3.55;;;2.20;;
80213;SDS011;69531;37.974;23.708;2023-05-07T10:37:13;4.50;;;2.20;;
80213;SDS011;69531;37.974;23.708;2023-05-07T10:39:40;3.65;;;2.05;;
80213;SDS011;69531;37.974;23.708;2023-05-07T10:42:10;3.53;;;1.98;;
80213;SDS011;69531;37.974;23.708;2023-05-07T10:44:36;3.30;;;1.90;;
80213;SDS011;69531;37.974;23.708;2023-05-07T10:47:03;4.75;;;1.92;;
80213;SDS011;69531;37.974;23.708;2023-05-07T10:49:34;4.63;;;2.10;;
80213;SDS011;69531;37.974;23.708;2023-05-07T10:52:15;3.85;;;2.03;;
80213;SDS011;69531;37.974;23.708;2023-05-07T10:54:46;4.20;;;2.20;;
80213;SDS011;69531;37.974;23.708;2023-05-07T11:00:01;4.82;;;2.17;;
80213;SDS011;69531;37.974;23.708;2023-05-07T11:05:25;3.80;;;1.70;;
80213;SDS011;69531;37.974;23.708;2023-05-07T11:07:58;4.20;;;2.08;;
80213;SDS011;69531;37.974;23.708;2023-05-07T11:13:12;7.18;;;2.67;;
80213;SDS011;69531;37.974;23.708;2023-05-07T11:15:39;5.63;;;2.05;;
80213;SDS011;69531;37.974;23.708;2023-05-07T11:18:10;5.88;;;2.50;;
80213;SDS011;69531;37.974;23.708;2023-05-07T11:20:53;5.18;;;2.20;;
80213;SDS011;69531;37.974;23.708;2023-05-07T11:28:30;4.97;;;2.40;;
80213;SDS011;69531;37.974;23.708;2023-05-07T11:30:57;4.07;;;2.20;;
80213;SDS011;69531;37.974;23.708;2023-05-07T11:33:23;5.68;;;2.22;;
80213;SDS011;69531;37.974;23.708;2023-05-07T11:35:54;4.63;;;2.40;;
80213;SDS011;69531;37.974;23.708;2023-05-07T11:38:21;5.25;;;2.35;;
80213;SDS011;69531;37.974;23.708;2023-05-07T11:40:51;3.75;;;2.28;;
80213;SDS011;69531;37.974;23.708;2023-05-07T11:43:18;3.78;;;2.10;;
80213;SDS011;69531;37.974;23.708;2023-05-07T11:45:46;3.88;;;2.20;;
80213;SDS011;69531;37.974;23.708;2023-05-07T11:48:13;4.22;;;2.03;;
80213;SDS011;69531;37.974;23.708;2023-05-07T11:53:27;3.40;;;2.10;;
80213;SDS011;69531;37.974;23.708;2023-05-07T11:56:00;3.15;;;1.90;;
80213;SDS011;69531;37.974;23.708;2023-05-07T12:01:07;4.43;;;2.05;;
80213;SDS011;69531;37.974;23.708;2023-05-07T12:03:35;3.50;;;2.20;;
80213;SDS011;69531;37.974;23.708;2023-05-07T12:06:02;3.55;;;2.05;;
80213;SDS011;69531;37.974;23.708;2023-05-07T12:08:30;5.10;;;2.25;;
80213;SDS011;69531;37.974;23.708;2023-05-07T12:10:56;3.88;;;2.10;;
80213;SDS011;69531;37.974;23.708;2023-05-07T12:13:22;3.78;;;2.10;;
80213;SDS011;69531;37.974;23.708;2023-05-07T12:15:53;6.05;;;2.55;;
80213;SDS011;69531;37.974;23.708;2023-05-07T12:18:20;3.90;;;2.40;;
80213;SDS011;69531;37.974;23.708;2023-05-07T12:20:47;3.85;;;2.22;;
80213;SDS011;69531;37.974;23.708;2023-05-07T12:23:13;4.68;;;2.55;;
80213;SDS011;69531;37.974;23.708;2023-05-07T12:25:40;4.13;;;2.38;;
80213;SDS011;69531;37.974;23.708;2023-05-07T12:28:14;4.38;;;2.42;;
80213;SDS011;69531;37.974;23.708;2023-05-07T12:30:48;4.20;;;1.88;;
80213;SDS011;69531;37.974;23.708;2023-05-07T12:33:18;4.63;;;2.30;;
80213;SDS011;69531;37.974;23.708;2023-05-07T12:35:48;4.32;;;2.25;;
80213;SDS011;69531;37.974;23.708;2023-05-07T12:38:15;3.30;;;2.08;;
80213;SDS011;69531;37.974;23.708;2023-05-07T12:40:43;5.05;;;2.20;;
80213;SDS011;69531;37.974;23.708;2023-05-07T12:43:20;4.07;;;2.30;;
80213;SDS011;69531;37.974;23.708;2023-05-07T12:45:48;2.95;;;2.10;;
80213;SDS011;69531;37.974;23.708;2023-05-07T12:48:15;3.70;;;2.13;;
80213;SDS011;69531;37.974;23.708;2023-05-07T12:50:41;4.55;;;2.22;;
80213;SDS011;69531;37.974;23.708;2023-05-07T12:53:08;5.95;;;2.30;;
80213;SDS011;69531;37.974;23.708;2023-05-07T12:55:46;4.25;;;2.20;;
80213;SDS011;69531;37.974;23.708;2023-05-07T13:00:41;4.82;;;2.60;;
80213;SDS011;69531;37.974;23.708;2023-05-07T13:03:08;4.35;;;2.33;;
80213;SDS011;69531;37.974;23.708;2023-05-07T13:05:34;5.85;;;2.28;;
80213;SDS011;69531;37.974;23.708;2023-05-07T13:08:00;4.25;;;2.45;;
80213;SDS011;69531;37.974;23.708;2023-05-07T13:10:26;4.28;;;2.60;;
80213;SDS011;69531;37.974;23.708;2023-05-07T13:12:52;3.72;;;2.25;;
80213;SDS011;69531;37.974;23.708;2023-05-07T13:15:18;3.72;;;2.40;;
80213;SDS011;69531;37.974;23.708;2023-05-07T13:17:44;4.68;;;2.38;;
80213;SDS011;69531;37.974;23.708;2023-05-07T13:20:10;3.83;;;2.00;;
80213;SDS011;69531;37.974;23.708;2023-05-07T13:22:40;3.50;;;2.15;;
80213;SDS011;69531;37.974;23.708;2023-05-07T13:25:06;4.18;;;2.40;;
80213;SDS011;69531;37.974;23.708;2023-05-07T13:27:32;4.40;;;2.40;;
80213;SDS011;69531;37.974;23.708;2023-05-07T13:30:01;3.88;;;2.20;;
80213;SDS011;69531;37.974;23.708;2023-05-07T13:32:28;6.57;;;2.60;;
80213;SDS011;69531;37.974;23.708;2023-05-07T13:34:54;4.78;;;2.55;;
80213;SDS011;69531;37.974;23.708;2023-05-07T13:37:20;4.57;;;2.20;;
80213;SDS011;69531;37.974;23.708;2023-05-07T13:39:46;4.70;;;2.40;;
80213;SDS011;69531;37.974;23.708;2023-05-07T13:42:12;4.10;;;2.50;;
80213;SDS011;69531;37.974;23.708;2023-05-07T13:44:37;4.15;;;2.30;;
80213;SDS011;69531;37.974;23.708;2023-05-07T13:47:03;4.57;;;2.45;;
80213;SDS011;69531;37.974;23.708;2023-05-07T13:49:29;5.40;;;2.80;;
80213;SDS011;69531;37.974;23.708;2023-05-07T13:51:55;5.55;;;2.83;;
80213;SDS011;69531;37.974;23.708;2023-05-07T13:54:20;4.30;;;2.40;;
80213;SDS011;69531;37.974;23.708;2023-05-07T13:56:46;4.32;;;2.03;;
80213;SDS011;69531;37.974;23.708;2023-05-07T13:59:12;3.65;;;2.28;;
80213;SDS011;69531;37.974;23.708;2023-05-07T14:01:39;4.50;;;2.25;;
80213;SDS011;69531;37.974;23.708;2023-05-07T14:04:05;4.05;;;2.40;;
80213;SDS011;69531;37.974;23.708;2023-05-07T14:06:31;3.60;;;2.00;;
80213;SDS011;69531;37.974;23.708;2023-05-07T14:08:56;3.88;;;2.30;;
80213;SDS011;69531;37.974;23.708;2023-05-07T14:11:23;4.05;;;2.45;;
80213;SDS011;69531;37.974;23.708;2023-05-07T14:13:48;4.25;;;2.20;;
80213;SDS011;69531;37.974;23.708;2023-05-07T14:16:14;4.82;;;2.58;;
80213;SDS011;69531;37.974;23.708;2023-05-07T14:18:40;3.55;;;2.25;;
80213;SDS011;69531;37.974;23.708;2023-05-07T14:21:05;4.43;;;2.33;;
80213;SDS011;69531;37.974;23.708;2023-05-07T14:23:32;6.05;;;2.30;;
80213;SDS011;69531;37.974;23.708;2023-05-07T14:25:58;4.85;;;2.30;;
80213;SDS011;69531;37.974;23.708;2023-05-07T14:28:23;4.75;;;2.38;;
80213;SDS011;69531;37.974;23.708;2023-05-07T14:30:49;3.60;;;2.13;;
80213;SDS011;69531;37.974;23.708;2023-05-07T14:33:15;3.72;;;2.33;;
80213;SDS011;69531;37.974;23.708;2023-05-07T14:35:41;4.80;;;2.35;;
80213;SDS011;69531;37.974;23.708;2023-05-07T14:38:10;4.38;;;2.25;;
80213;SDS011;69531;37.974;23.708;2023-05-07T14:40:35;5.05;;;2.20;;
80213;SDS011;69531;37.974;23.708;2023-05-07T14:43:01;4.15;;;2.05;;
80213;SDS011;69531;37.974;23.708;2023-05-07T14:45:27;5.22;;;2.83;;
80213;SDS011;69531;37.974;23.708;2023-05-07T14:47:52;6.10;;;2.13;;
80213;SDS011;69531;37.974;23.708;2023-05-07T14:50:18;3.45;;;2.20;;
80213;SDS011;69531;37.974;23.708;2023-05-07T14:52:44;3.75;;;2.08;;
80213;SDS011;69531;37.974;23.708;2023-05-07T14:55:10;4.20;;;2.15;;